Detall de PIREP

Printer-friendly versionPDF version

[2012/09/15 17:53:00]
Flight IATA:CT3413
Pilot Number:042
Company ICAO:CAT
Aircraft Type:MD11/E
PAX:303
Aircraft Registration:PAX
Departing Airport: UUEE
Destination Airport: LEBL
Alternate Airport:LEPA
Online: VATSIM
Route:AR BD1T BG R805 TU G723 RATIN UN869 OSMUS UM984 LETKI M984 TUSIN UM984 MIKOV UQ984 VAMTU UM984 DIVKO UN975 BISBA
Flight Level:F380
No Slew and time accel
No pause
Crash detect
Detect pilot in Cockpit between each 30 and 45 minutes
17:53 Zero fuel Weight: 377795 Lbs, Fuel Weight: 17420 Lbs
17:53 VATSIM:UUEE 151730Z 20003MPS CAVOK 16/13 Q1006 NOSIG
17:53 VATSIM:LEBL 151730Z 06005KT 360V110 9999 FEW025 26/14 Q1014 NOSIG
17:53 VOICE CATALONIAN
18:26 Parking Brakes off
18:52 Take-off
18:52 Take off Weight: 475178 Lbs
18:52 Wind: 201º @ 004 Knots Heading: 254º
18:52 POS N55º 58´ 14´´ E037º 24´ 43´´
18:52 Gear Up: 166 Knots
18:52 Flaps:5 at 166 Knots
18:53 Flaps:4 at 173 Knots
18:54 Flaps:3 at 174 Knots
18:54 Flaps:2 at 175 Knots
18:54 Flaps:1 at 177 Knots
18:57 Flaps:0 at 268 Knots
19:07 Wind:200º@010 Knots Heading: 268º Ground Speed: 470 Knots Altitude 32490 ft
19:13 TOC
19:13 Fuel Weight: 85704 Lb
19:22 Wind:193º@027 Knots Heading: 241º Ground Speed: 444 Knots Altitude 37791 ft
19:37 Wind:237º@018 Knots Heading: 239º Ground Speed: 444 Knots Altitude 37824 ft
19:52 Wind:255º@027 Knots Heading: 231º Ground Speed: 437 Knots Altitude 37828 ft
20:07 Wind:269º@031 Knots Heading: 231º Ground Speed: 437 Knots Altitude 37900 ft
20:22 Wind:260º@024 Knots Heading: 233º Ground Speed: 438 Knots Altitude 38028 ft
20:29 Gear Down: 260 Knots
20:29 Gear Up: 242 Knots
20:30 TOD
20:30 Fuel Weight: 66586 Lb
20:31 TOC
20:31 Fuel Weight: 66183 Lb
20:37 Wind:240º@023 Knots Heading: 233º Ground Speed: 435 Knots Altitude 38110 ft
20:52 Wind:310º@022 Knots Heading: 230º Ground Speed: 454 Knots Altitude 38159 ft
21:07 Wind:266º@014 Knots Heading: 235º Ground Speed: 446 Knots Altitude 38175 ft
21:22 Wind:092º@001 Knots Heading: 233º Ground Speed: 463 Knots Altitude 38139 ft
21:37 Wind:090º@016 Knots Heading: 229º Ground Speed: 472 Knots Altitude 38067 ft
21:52 Wind:340º@007 Knots Heading: 230º Ground Speed: 467 Knots Altitude 39045 ft
22:07 Wind:001º@014 Knots Heading: 248º Ground Speed: 456 Knots Altitude 39022 ft
22:19 TOD
22:19 Fuel Weight: 40294 Lb
22:22 Wind:335º@005 Knots Heading: 221º Ground Speed: 482 Knots Altitude 30610 ft
22:34 Flaps:1 at 246 Knots
22:35 Flaps:2 at 248 Knots
22:35 Flaps:3 at 246 Knots
22:37 Wind:126º@008 Knots Heading: 245º Ground Speed: 208 Knots Altitude 8490 ft
22:48 Gear Down: 176 Knots
22:48 Flaps:4 at 176 Knots
22:48 Flaps:3 at 176 Knots
22:48 Flaps:4 at 175 Knots
22:48 Flaps:5 at 175 Knots
22:48 Flaps:6 at 176 Knots
22:52 Wind:003º@006 Knots Heading: 063º Ground Speed: 176 Knots Altitude 311 ft
22:52 TouchDown:Rate -187 ft/min Speed: 166 Knots
22:52 Flaps:7 at 165 Knots
22:52 VATSIM:LEBL 152230Z 36006KT 9999 FEW012 22/16 Q1015 NOSIG
22:52 Land
22:52 Wind:003º@006 Knots
22:52 Heading: 065º
22:52 Flight Duration: 04:00
22:52 Landing Weight: 410558 Lbs
22:52 POS N41º 18´ 09´´ E002º 05´ 39´´
23:02 Parking brakes on
23:02 Block to Block Duration: 04:36
23:02 Final Fuel: 31496 Lbls
23:02 Spent Fuel: 878693282 Lbls
23:02 Flight Length: 1692 NM
23:02 TOD Land Length: 160 NM

Exportar CSV

Powered by Drupal - Modified by Danger4k